KLSF/LSF METAR and TAF weather

Enter ICAO airport designator
Station Type Date Time Source
KLSF METAR 2022/06/29 01:21 UTC NOAA

KLSF 290121Z AUTO 23004KT 10SM FEW070 BKN100 26/22 A3009 RMK AO2 LTG DSNT W TSB06E21 SLP192 $


Station Type Date Time Source
KLSF Decoded METAR 2022/06/29 01:21 UTC NOAA

Fort Benning, GA, United States (KLSF) 32-20N 084-50W 130M
Jun 28, 2022 - 09:21 PM EDT / 2022.06.29 0121 UTC
Wind: from the SW (230 degrees) at 5 MPH (4 KT):0
Visibility: 10 mile(s):0
Sky conditions: mostly cloudy
Weather: Lightning observed
Temperature: 78 F (26 C)
Dew Point: 71 F (22 C)
Relative Humidity: 78%
Pressure (altimeter): 30.09 in. Hg (1018 hPa)
ob: KLSF 290121Z AUTO 23004KT 10SM FEW070 BKN100 26/22 A3009 RMK AO2 LTG DSNT W TSB06E21 SLP192
cycle: 1

Station Type Date Time Source
KLSF TAF 2022/06/28 21:03 UTC NOAA

TAF KLSF 282100Z 2821/3003 12006KT 9999 VCSH FEW050 SCT085 SCT110 QNH3000INS
TEMPO 2821/2903 08010G15KT 9000 -SHRA VCTS FEW040CB SCT085 BKN140
BECMG 2903/2904 07006KT 9999 NSW SCT040 BKN110 QNH3007INS
BECMG 2906/2907 06002KT 4800 BR BKN020 BKN060 QNH3008INS
TEMPO 2907/2913 1600 BR BKN008
BECMG 2916/2917 11006KT 9999 -SHRA SCT025 BKN065 OVC150 QNH3011INS
TEMPO 2917/2919 11010G15KT 9000 -SHRA VCTS SCT030CB BKN055 TX36/2921Z TN21/2911Z LAST NO
AMDS AFT 2903 NEXT 2913

Example: see airport list